Station AGXC1 - 9410647 - Angels Gate, CA Image indicating link to RSS feed of recent meteorological observations for station AGXC1


Conditions at AGXC1 as of
(6:48 am PDT)
1348 GMT on 07/23/2024:
     

Click on the graph icon in the table below to see a time series plot of the last five days of that observation.

5-day plot - Wind Direction Wind Direction (WDIR):NNW ( 330 deg true )
5-day plot - Wind Speed Wind Speed (WSPD): 1.0 kts
5-day plot - Wind Gust Wind Gust (GST): 1.9 kts
5-day plot - Air Temperature Air Temperature (ATMP): 68.4 °F
5-day plot - Wind Speed at 10 Meters Wind Speed at 10 meters (WSPD10M): 1.9 kts
5-day plot - Wind Speed at 20 Meters Wind Speed at 20 meters (WSPD20M): 1.9 kts
5-day plot -  Wind Speed, Wind Gust and Atmospheric Pressure Combined plot of Wind Speed, Gust, and Air Pressure
NOS Water Level Observation Network Water Level
Previous observations
TIME
(PDT)
5-day plot - Wind Direction
WDIR
 
5-day plot - Wind Speed
WSPD
kts
5-day plot - Wind Gust
GST
kts
5-day plot - Wave Height
WVHT
ft
5-day plot - Dominant Wave Period
DPD
sec
5-day plot - Average Wave Period
APD
sec
5-day plot - Mean Wave Direction
MWD
 
5-day plot - Atmospheric Pressure
PRES
in
5-day plot - Pressure Tendency
PTDY
in
5-day plot - Air Temperature
ATMP
°F
5-day plot - Water Temperature
WTMP
°F
5-day plot - Dew Point
DEWP
°F
5-day plot - Salinity
SAL
psu
5-day plot - Visibility
VIS
nmi
5-day plot - Tide (above MLLW)
TIDE
ft
2024-07-23 06:42 amNNW 1.9 2.9------ 67.6-----
2024-07-23 06:30 am W 1.9 1.9------ 66.7-----
2024-07-23 06:18 am W 4.1 5.1------ 65.8-----
2024-07-23 06:12 amWSW 4.1 5.1------ 65.8-----
2024-07-23 06:06 am W 5.1 7.0------ 65.8-----
2024-07-23 05:54 am W 7.0 8.0------ 65.7-----
2024-07-23 05:42 amWSW 7.0 8.0------ 65.1-----
2024-07-23 05:30 amWSW 5.1 6.0------ 66.2-----
2024-07-23 05:24 amWSW 5.1 6.0------ 65.8-----
2024-07-23 05:18 am SW 4.1 4.1------ 66.4-----
2024-07-23 05:12 amWSW 2.9 4.1------ 66.6-----
2024-07-23 05:00 am W 1.9 2.9------ 66.6-----
2024-07-23 04:54 am W 2.9 4.1------ 66.2-----
2024-07-23 04:48 am W 4.1 4.1------ 66.0-----
2024-07-23 04:36 am W 4.1 5.1------ 65.7-----
2024-07-23 04:24 amWSW 4.1 5.1------ 65.3-----
2024-07-23 04:18 amWSW 5.1 5.1------ 64.9-----
2024-07-23 04:12 amWSW 5.1 6.0------ 64.8-----
2024-07-23 04:00 am SW 6.0 8.0------ 64.9-----
2024-07-23 03:48 am SW 5.1 7.0------ 65.5-----
2024-07-23 03:42 am SW 4.1 6.0------ 66.0-----
2024-07-23 03:36 am SW 1.9 2.9------ 66.7-----
2024-07-23 03:24 am SW 2.9 4.1------ 66.7-----
2024-07-23 03:12 amSSW 1.0 1.9------ 66.6-----
2024-07-23 03:06 am- 0.0 0.0------ 66.6-----
2024-07-23 03:00 am- 0.0 0.0------ 66.9-----
2024-07-23 02:48 am W 1.9 1.9------ 66.7-----
2024-07-23 02:42 am W 1.9 2.9------ 66.6-----
2024-07-23 02:36 am W 2.9 4.1------ 66.4-----
2024-07-23 02:30 am W 4.1 5.1------ 65.8-----
2024-07-23 02:18 amWSW 5.1 6.0------ 65.5-----
2024-07-23 02:06 am SW 4.1 5.1------ 65.8-----
2024-07-23 02:00 am SW 4.1 5.1------ 65.7-----
2024-07-23 01:54 am SW 4.1 5.1------ 65.5-----
2024-07-23 01:42 am S 2.9 2.9------ 66.2-----
2024-07-23 01:30 amSSE 1.9 1.9------ 66.0-----
2024-07-23 01:24 am S 1.9 1.9------ 65.7-----
2024-07-23 01:18 am S 1.0 1.9------ 65.1-----
2024-07-23 01:06 amESE 1.0 1.9------ 66.4-----
2024-07-23 12:54 am- 0.0 0.0------ 66.6-----
2024-07-23 12:48 am- 0.0 0.0------ 66.7-----
2024-07-23 12:42 am- 0.0 0.0------ 66.9-----
2024-07-23 12:30 am W 1.0 1.0------ 66.6-----
2024-07-23 12:18 amWSW 2.9 2.9------ 66.0-----
2024-07-23 12:12 amWSW 2.9 4.1------ 66.0-----
2024-07-23 12:06 amWSW 4.1 4.1------ 65.7-----
2024-07-22 11:54 pm SW 4.1 5.1------ 64.9-----
2024-07-22 11:42 pm SW 4.1 5.1------ 64.2-----
2024-07-22 11:36 pm SW 2.9 4.1------ 64.2-----
2024-07-22 11:30 pm SW 4.1 5.1------ 64.2-----
2024-07-22 11:18 pmWSW 5.1 7.0------ 64.9-----
2024-07-22 11:12 pm SW 5.1 7.0------ 64.2-----
2024-07-22 11:00 pm SW 7.0 8.0------ 63.9-----
2024-07-22 10:54 pm SW 7.0 8.0------ 64.0-----
2024-07-22 10:48 pm SW 7.0 8.9------ 64.4-----
2024-07-22 10:42 pmWSW 8.0 9.9------ 64.9-----
2024-07-22 10:30 pm SW 8.0 8.9------ 64.6-----
2024-07-22 10:24 pm SW 7.0 8.9------ 64.9-----
2024-07-22 10:18 pm SW 6.0 8.9------ 65.1-----
2024-07-22 10:12 pm SW 6.0 8.9------ 64.9-----
2024-07-22 10:06 pm SW 7.0 8.9------ 65.1-----
2024-07-22 10:00 pm SW 7.0 9.9------ 65.1-----
2024-07-22 09:54 pmWSW 8.0 9.9------ 64.9-----
2024-07-22 09:48 pmWSW 8.0 11.1------ 64.8-----
2024-07-22 09:36 pm SW 8.9 11.1------ 65.3-----
2024-07-22 09:24 pm SW 8.0 9.9------ 65.7-----
2024-07-22 09:12 pmWSW 7.0 8.9------ 65.8-----
2024-07-22 09:06 pmWSW 8.0 9.9------ 65.8-----
2024-07-22 09:00 pmWSW 8.0 9.9------ 66.0-----
2024-07-22 08:54 pmWSW 8.9 9.9------ 66.0-----
2024-07-22 08:42 pmWSW 8.0 9.9------ 66.6-----
2024-07-22 08:36 pmWSW 7.0 8.9------ 67.8-----
2024-07-22 08:30 pmWSW 7.0 8.0------ 67.8-----
2024-07-22 08:18 pmWSW 7.0 8.0------ 67.1-----
2024-07-22 08:06 pm SW 7.0 9.9------ 66.6-----
2024-07-22 07:54 pm SW 8.9 14.0------ 66.9-----
2024-07-22 07:48 pmWSW 11.1 13.0------ 66.9-----
2024-07-22 07:42 pmWSW 11.1 15.0------ 67.3-----
2024-07-22 07:36 pmWSW 12.0 14.0------ 67.1-----
2024-07-22 07:24 pmWSW 11.1 13.0------ 67.3-----
2024-07-22 07:18 pmWSW 12.0 14.0------ 67.3-----
2024-07-22 07:12 pmWSW 12.0 15.9------ 67.6-----
2024-07-22 07:00 pmWSW 11.1 15.0------ 67.5-----
2024-07-22 06:48 pmWSW 13.0 15.9------ 67.8-----
2024-07-22 06:42 pmWSW 12.0 15.0------ 68.0-----
2024-07-22 06:36 pmWSW 12.0 15.0------ 68.0-----
2024-07-22 06:24 pmWSW 12.0 15.9------ 68.4-----
2024-07-22 06:12 pmWSW 13.0 18.1------ 68.2-----
2024-07-22 06:06 pmWSW 14.0 19.0------ 68.2-----
2024-07-22 06:00 pmWSW 14.0 18.1------ 68.5-----
2024-07-22 05:48 pmWSW 13.0 17.1------ 68.7-----
2024-07-22 05:36 pmWSW 12.0 15.9------ 68.7-----
2024-07-22 05:30 pmWSW 13.0 17.1------ 68.7-----
2024-07-22 05:24 pmWSW 13.0 15.9------ 68.9-----
2024-07-22 05:12 pmWSW 12.0 15.9------ 70.2-----
2024-07-22 05:00 pmWSW 12.0 15.0------ 70.3-----
2024-07-22 04:54 pmWSW 12.0 15.9------ 69.8-----
2024-07-22 04:48 pmWSW 13.0 17.1------ 69.6-----
2024-07-22 04:36 pmWSW 12.0 15.9------------
2024-07-22 04:24 pmWSW 13.0 17.1------------
2024-07-22 04:18 pmWSW 13.0 15.9------------
2024-07-22 04:12 pmWSW 13.0 15.9------ 69.8-----
2024-07-22 04:00 pmWSW 14.0 17.1------ 70.0-----
2024-07-22 03:48 pmWSW 14.0 18.1------ 69.6-----
2024-07-22 03:42 pmWSW 15.0 18.1------ 69.4-----
2024-07-22 03:36 pmWSW 14.0 17.1------ 69.8-----
2024-07-22 03:24 pmWSW 13.0 15.9------ 70.2-----
2024-07-22 03:12 pmWSW 13.0 15.9------ 70.0-----
2024-07-22 03:00 pmWSW 14.0 17.1------ 70.3-----
2024-07-22 02:54 pmWSW 13.0 17.1------ 70.7-----
2024-07-22 02:48 pmWSW 13.0 15.9------ 70.3-----
2024-07-22 02:42 pmWSW 13.0 15.9------ 70.0-----
2024-07-22 02:30 pmWSW 12.0 15.9------ 70.0-----
2024-07-22 02:06 pmWSW 12.0 17.1------ 69.8-----
2024-07-22 02:00 pmWSW 13.0 15.9------ 69.6-----
2024-07-22 01:54 pmWSW 13.0 17.1------------
2024-07-22 01:48 pmWSW 13.0 15.9------------
2024-07-22 01:36 pmWSW 12.0 15.9------ 69.1-----
2024-07-22 01:24 pm SW 12.0 15.9------ 67.8-----
2024-07-22 01:12 pm SW 13.0 15.9------ 68.5-----
2024-07-22 01:06 pm SW 12.0 15.9------ 68.5-----
2024-07-22 01:00 pm SW 12.0 15.0------ 68.4-----
2024-07-22 12:54 pm SW 12.0 14.0------ 68.0-----
2024-07-22 12:42 pm SW 12.0 14.0------ 67.5-----
2024-07-22 12:36 pm SW 11.1 15.0------------
2024-07-22 12:30 pm SW 11.1 13.0------------
2024-07-22 12:18 pm SW 12.0 14.0------ 68.7-----
2024-07-22 12:06 pmWSW 9.9 13.0------ 68.4-----
2024-07-22 12:00 pmWSW 9.9 12.0------ 68.4-----
2024-07-22 11:54 am SW 11.1 12.0------ 67.3-----
2024-07-22 11:42 am SW 11.1 13.0------ 67.1-----
2024-07-22 11:36 am SW 9.9 13.0------ 67.3-----
2024-07-22 11:30 am SW 11.1 13.0------ 66.9-----
2024-07-22 11:24 am SW 9.9 13.0------ 67.5-----
2024-07-22 11:12 am SW 8.9 11.1------ 66.6-----
2024-07-22 11:06 am SW 9.9 12.0------ 66.2-----
2024-07-22 11:00 am SW 9.9 12.0------ 66.0-----
2024-07-22 10:54 am SW 9.9 12.0------ 65.8-----
2024-07-22 10:42 am SW 9.9 11.1------ 65.5-----
2024-07-22 10:30 am SW 9.9 11.1------ 66.0-----
2024-07-22 10:24 am SW 9.9 12.0------ 66.4-----
2024-07-22 10:18 am SW 9.9 12.0------ 66.6-----
2024-07-22 10:06 am SW 9.9 12.0------ 66.0-----
2024-07-22 09:54 am SW 9.9 11.1------ 66.0-----
2024-07-22 09:48 am SW 8.9 9.9------ 66.0-----
2024-07-22 09:42 am SW 8.0 8.9------ 66.2-----
2024-07-22 09:30 am SW 8.0 8.9------ 66.2-----
2024-07-22 09:24 am SW 7.0 8.0------ 66.0-----
2024-07-22 09:18 am SW 7.0 8.0------ 65.7-----
2024-07-22 09:12 am SW 6.0 6.0------ 65.8-----
2024-07-22 09:00 am SW 6.0 7.0------ 66.2-----
2024-07-22 08:54 am SW 6.0 7.0------ 66.4-----
2024-07-22 08:42 am SW 6.0 7.0------ 66.2-----
2024-07-22 08:36 amSSW 5.1 6.0------ 66.6-----
2024-07-22 08:30 amSSW 5.1 5.1------ 66.7-----
2024-07-22 08:24 am SW 5.1 5.1------ 66.9-----
2024-07-22 08:12 am SW 4.1 4.1------ 67.6-----
2024-07-22 08:06 amWSW 2.9 4.1------ 67.8-----
2024-07-22 08:00 amWSW 2.9 4.1------ 67.1-----
2024-07-22 07:48 amSSW 2.9 4.1------ 66.6-----
2024-07-22 07:36 am SW 1.9 2.9------ 67.5-----
2024-07-22 07:30 am- 0.0 1.9------ 67.6-----
2024-07-22 07:24 amWSW 1.9 2.9------ 67.1-----
2024-07-22 07:12 amWSW 2.9 5.1------ 66.4-----
2024-07-22 07:00 amWSW 2.9 4.1------ 66.2-----
2024-07-22 06:54 amWSW 4.1 5.1------ 65.8-----